Time;durP1;ratioP1;P1;durP2;ratioP2;P2;SDS_P1;SDS_P2;PMS_P1;PMS_P2;Temp;Humidity;BMP_temperature;BMP_pressure;BME280_temperature;BME280_humidity;BME280_pressure;Samples;Min_cycle;Max_cycle;Signal;HPM_P1;HPM_P2
2021/12/18 00:09:58;;;;;;;14;19.2;;;;;;;3.4;77.4;100210;;;;
2021/12/18 00:19:58;;;;;;;12.2;17.5;;;;;;;3.3;77.6;100250;;;;
2021/12/18 00:29:58;;;;;;;12.2;17.5;;;;;;;3.3;77.7;100260;;;;
2021/12/18 00:41:12;;;;;;;12.2;17.5;;;;;;;3.3;77.9;100250;;;;
2021/12/18 00:51:58;;;;;;;8.2;11.8;;;;;;;3.2;77.9;100270;;;;
2021/12/18 01:01:58;;;;;;;8.2;11.8;;;;;;;3.3;77.6;100260;;;;
2021/12/18 01:11:58;;;;;;;8.2;11.8;;;;;;;3.3;77.1;100260;;;;
2021/12/18 01:22:58;;;;;;;8.9;15.3;;;;;;;3.4;76.9;100280;;;;
2021/12/18 01:33:58;;;;;;;8.9;15.3;;;;;;;3.3;77;100260;;;;
2021/12/18 01:45:10;;;;;;;8.9;15.3;;;;;;;3.2;76.7;100260;;;;
2021/12/18 01:54:58;;;;;;;7.2;12.1;;;;;;;3.3;76.7;100280;;;;
2021/12/18 02:04:58;;;;;;;7.2;12.1;;;;;;;3.3;77.7;100300;;;;
2021/12/18 02:24:58;;;;;;;8;16;;;;;;;3.2;77.8;100290;;;;
2021/12/18 02:35:03;;;;;;;8;16;;;;;;;3.2;77.7;100310;;;;
2021/12/18 02:45:59;;;;;;;8;16;;;;;;;3.1;78;100290;;;;
2021/12/18 02:55:58;;;;;;;7.9;12.4;;;;;;;3.1;78.2;100280;;;;
2021/12/18 03:07:01;;;;;;;7.9;12.4;;;;;;;3;78.5;100290;;;;
2021/12/18 03:27:58;;;;;;;9.4;14;;;;;;;2.9;79.1;100330;;;;
2021/12/18 03:38:59;;;;;;;9.4;14;;;;;;;2.9;79.1;100330;;;;
2021/12/18 03:48:58;;;;;;;9.8;16.6;;;;;;;2.8;79.3;100330;;;;
2021/12/18 03:58:58;;;;;;;9.8;16.6;;;;;;;2.8;79.5;100350;;;;
2021/12/18 04:08:58;;;;;;;9.8;16.6;;;;;;;2.8;79.7;100350;;;;
2021/12/18 04:19:58;;;;;;;9.6;14.9;;;;;;;2.8;79.8;100350;;;;
2021/12/18 04:29:58;;;;;;;9.6;14.9;;;;;;;2.9;79.3;100340;;;;
2021/12/18 04:40:58;;;;;;;9.6;14.9;;;;;;;2.8;79.5;100320;;;;
2021/12/18 04:50:58;;;;;;;9.6;17;;;;;;;2.8;79.5;100330;;;;
2021/12/18 05:00:58;;;;;;;9.6;17;;;;;;;2.9;79.7;100340;;;;
2021/12/18 05:11:58;;;;;;;9.6;17;;;;;;;2.9;79.7;100330;;;;
2021/12/18 05:22:58;;;;;;;10.8;16.9;;;;;;;2.8;79.8;100340;;;;
2021/12/18 05:34:00;;;;;;;10.8;16.9;;;;;;;2.9;79.4;100340;;;;
2021/12/18 05:44:58;;;;;;;10.8;16.9;;;;;;;2.8;78.9;100340;;;;
2021/12/18 05:55:58;;;;;;;10.6;16.2;;;;;;;2.8;78.6;100350;;;;
2021/12/18 06:07:04;;;;;;;10.6;16.2;;;;;;;2.8;78.8;100370;;;;
2021/12/18 06:16:58;;;;;;;13.5;18.2;;;;;;;2.7;78.7;100360;;;;
2021/12/18 06:27:58;;;;;;;13.5;18.2;;;;;;;2.7;78.9;100370;;;;
2021/12/18 06:38:58;;;;;;;13.5;18.2;;;;;;;2.6;78.7;100370;;;;
2021/12/18 06:48:58;;;;;;;13.1;20.3;;;;;;;2.6;78.9;100360;;;;
2021/12/18 06:58:58;;;;;;;13.1;20.3;;;;;;;2.6;78.9;100360;;;;
2021/12/18 07:09:58;;;;;;;13.1;20.3;;;;;;;2.7;78.4;100360;;;;
2021/12/18 07:20:58;;;;;;;14.1;21.7;;;;;;;2.7;78.4;100340;;;;
2021/12/18 07:31:58;;;;;;;14.1;21.7;;;;;;;2.8;78.2;100350;;;;
2021/12/18 07:41:58;;;;;;;14.1;21.7;;;;;;;2.8;78;100350;;;;
2021/12/18 07:52:02;;;;;;;13.9;22.8;;;;;;;2.8;78.1;100360;;;;
2021/12/18 08:01:58;;;;;;;13.9;22.8;;;;;;;2.8;77.8;100350;;;;
2021/12/18 08:12:58;;;;;;;13.9;22.8;;;;;;;3.1;77.5;100340;;;;
2021/12/18 08:22:58;;;;;;;16.4;21.6;;;;;;;3.1;76.8;100360;;;;
2021/12/18 08:33:58;;;;;;;16.4;21.6;;;;;;;3.5;76.1;100370;;;;
2021/12/18 08:44:58;;;;;;;16.4;21.6;;;;;;;3.6;74.3;100370;;;;
2021/12/18 08:55:58;;;;;;;16;20.5;;;;;;;3.5;73.6;100360;;;;
2021/12/18 09:06:58;;;;;;;16;20.5;;;;;;;3.4;73;100360;;;;
2021/12/18 09:16:58;;;;;;;14.7;20.2;;;;;;;3.4;73.6;100340;;;;
2021/12/18 09:27:59;;;;;;;14.7;20.2;;;;;;;3.6;71.5;100320;;;;
2021/12/18 09:38:58;;;;;;;14.7;20.2;;;;;;;3.7;69.9;100300;;;;
2021/12/18 09:48:58;;;;;;;12;13.8;;;;;;;3.7;69.8;100290;;;;
2021/12/18 09:58:58;;;;;;;12;13.8;;;;;;;3.6;70.2;100290;;;;
2021/12/18 10:08:58;;;;;;;12;13.8;;;;;;;3.8;69.4;100280;;;;
2021/12/18 10:19:58;;;;;;;17.1;24.4;;;;;;;3.7;69.7;100260;;;;
2021/12/18 10:29:58;;;;;;;17.1;24.4;;;;;;;3.6;70;100250;;;;
2021/12/18 10:39:58;;;;;;;17.1;24.4;;;;;;;3.5;70.5;100250;;;;
2021/12/18 10:49:58;;;;;;;18.3;23.5;;;;;;;3.6;70.8;100250;;;;
2021/12/18 10:59:58;;;;;;;18.3;23.5;;;;;;;3.4;71.3;100230;;;;
2021/12/18 11:13:38;;;;;;;18.3;23.5;;;;;;;3.5;71;100210;;;;
2021/12/18 11:20:58;;;;;;;16.1;19.4;;;;;;;3.3;71.4;100200;;;;
2021/12/18 11:30:58;;;;;;;16.1;19.4;;;;;;;3.6;71;100190;;;;
2021/12/18 11:40:58;;;;;;;16.1;19.4;;;;;;;3.5;71.1;100190;;;;
2021/12/18 11:51:58;;;;;;;15.7;21.5;;;;;;;3.6;71.1;100180;;;;
2021/12/18 12:02:58;;;;;;;15.7;21.5;;;;;;;3.6;71.3;100160;;;;
2021/12/18 12:13:58;;;;;;;15.7;21.5;;;;;;;3.7;71.2;100160;;;;
2021/12/18 12:23:58;;;;;;;19.3;25.6;;;;;;;3.7;71.6;100120;;;;
2021/12/18 12:33:58;;;;;;;19.3;25.6;;;;;;;3.8;71.5;100120;;;;
2021/12/18 12:43:59;;;;;;;19.3;25.6;;;;;;;3.8;71.4;100100;;;;
2021/12/18 12:54:58;;;;;;;17.7;24.6;;;;;;;3.6;71.9;100090;;;;
2021/12/18 13:04:58;;;;;;;17.7;24.6;;;;;;;3.6;72.2;100100;;;;
2021/12/18 13:14:58;;;;;;;17.7;24.6;;;;;;;3.6;72.8;100080;;;;
2021/12/18 13:25:58;;;;;;;24.9;38.4;;;;;;;3.5;73;100060;;;;
2021/12/18 13:35:58;;;;;;;24.9;38.4;;;;;;;3.4;73.3;100080;;;;
2021/12/18 13:45:58;;;;;;;32.6;47.3;;;;;;;3.4;73.7;100060;;;;
2021/12/18 13:56:58;;;;;;;32.6;47.3;;;;;;;3.5;74.3;100040;;;;
2021/12/18 14:06:58;;;;;;;32.6;47.3;;;;;;;3.3;75.9;100050;;;;
2021/12/18 14:16:58;;;;;;;28.7;41.7;;;;;;;3.3;76.7;100050;;;;
2021/12/18 14:27:58;;;;;;;28.7;41.7;;;;;;;3.3;76.3;100050;;;;
2021/12/18 14:38:58;;;;;;;28.7;41.7;;;;;;;3.3;76.3;100030;;;;
2021/12/18 14:48:58;;;;;;;30.7;39.5;;;;;;;3.3;76.3;100000;;;;
2021/12/18 14:59:58;;;;;;;30.7;39.5;;;;;;;3.3;76.7;100000;;;;
2021/12/18 15:09:58;;;;;;;30.7;39.5;;;;;;;3.3;76.9;100000;;;;
2021/12/18 15:20:58;;;;;;;28.6;36.5;;;;;;;3.3;77.5;99990;;;;
2021/12/18 15:31:58;;;;;;;28.6;36.5;;;;;;;3.3;78.1;99980;;;;
2021/12/18 15:41:58;;;;;;;28.6;36.5;;;;;;;3.3;78.2;99970;;;;
2021/12/18 15:51:58;;;;;;;30.9;39.7;;;;;;;3.3;78;99950;;;;
2021/12/18 16:02:58;;;;;;;30.9;39.7;;;;;;;3.2;78;99950;;;;
2021/12/18 16:13:58;;;;;;;30.9;39.7;;;;;;;3.1;78.7;99920;;;;
2021/12/18 16:23:58;;;;;;;28.8;36.7;;;;;;;2.9;79.9;99910;;;;
2021/12/18 16:33:58;;;;;;;28.8;36.7;;;;;;;2.8;80;99900;;;;
2021/12/18 16:44:58;;;;;;;28.8;36.7;;;;;;;2.9;79.4;99890;;;;
2021/12/18 16:54:59;;;;;;;23.7;28.3;;;;;;;2.9;78.7;99880;;;;
2021/12/18 17:05:58;;;;;;;23.7;28.3;;;;;;;3.1;77.7;99860;;;;
2021/12/18 17:15:58;;;;;;;19.9;30.4;;;;;;;3.2;77.2;99840;;;;
2021/12/18 17:25:58;;;;;;;19.9;30.4;;;;;;;3.3;76.6;99840;;;;
2021/12/18 17:36:58;;;;;;;19.9;30.4;;;;;;;3.4;76.2;99820;;;;
2021/12/18 17:46:58;;;;;;;19.2;25.8;;;;;;;3.5;75.7;99800;;;;
2021/12/18 17:57:58;;;;;;;19.2;25.8;;;;;;;3.6;75.2;99800;;;;
2021/12/18 18:08:58;;;;;;;19.2;25.8;;;;;;;3.6;75.1;99780;;;;
2021/12/18 18:19:58;;;;;;;23.2;30.7;;;;;;;3.8;74.8;99790;;;;
2021/12/18 18:29:58;;;;;;;23.2;30.7;;;;;;;3.8;75.5;99760;;;;
2021/12/18 18:40:58;;;;;;;23.2;30.7;;;;;;;3.9;75.5;99750;;;;
2021/12/18 18:50:58;;;;;;;20.7;25.6;;;;;;;4;76.1;99740;;;;
2021/12/18 19:00:58;;;;;;;20.7;25.6;;;;;;;4.1;75.9;99740;;;;
2021/12/18 19:10:58;;;;;;;20.7;25.6;;;;;;;4.1;75.9;99720;;;;
2021/12/18 19:21:58;;;;;;;22;31.1;;;;;;;4.1;76.5;99700;;;;
2021/12/18 19:31:58;;;;;;;22;31.1;;;;;;;4.2;76.6;99700;;;;
2021/12/18 19:42:59;;;;;;;22;31.1;;;;;;;4.2;76.5;99670;;;;
2021/12/18 19:53:58;;;;;;;21.9;28;;;;;;;4.2;76.9;99680;;;;
2021/12/18 20:05:02;;;;;;;21.9;28;;;;;;;4.2;77.2;99670;;;;
2021/12/18 20:14:01;;;;;;;21.9;28;;;;;;;4.3;76.8;99660;;;;
2021/12/18 20:23:58;;;;;;;22.5;28.4;;;;;;;4.3;77.1;99650;;;;
2021/12/18 20:34:58;;;;;;;22.5;28.4;;;;;;;4.4;76.7;99620;;;;
2021/12/18 20:44:58;;;;;;;25;31.8;;;;;;;4.3;76.8;99610;;;;
2021/12/18 20:54:58;;;;;;;25;31.8;;;;;;;4.3;77.1;99600;;;;
2021/12/18 21:04:58;;;;;;;25;31.8;;;;;;;4.5;77;99570;;;;
2021/12/18 21:14:58;;;;;;;24.2;28;;;;;;;4.4;77.9;99550;;;;
2021/12/18 21:24:59;;;;;;;24.2;28;;;;;;;4.4;78.4;99560;;;;
2021/12/18 21:44:59;;;;;;;28.3;40.2;;;;;;;4.5;78.8;99550;;;;
2021/12/18 21:55:58;;;;;;;28.3;40.2;;;;;;;4.4;79.5;99540;;;;
2021/12/18 22:05:58;;;;;;;28.3;40.2;;;;;;;4.4;80.3;99500;;;;
2021/12/18 22:15:58;;;;;;;25;30;;;;;;;4.4;81.6;99490;;;;
2021/12/18 22:25:59;;;;;;;25;30;;;;;;;4.4;82.1;99470;;;;
2021/12/18 22:35:58;;;;;;;25;30;;;;;;;4.4;82.5;99460;;;;
2021/12/18 22:45:59;;;;;;;28.7;35.5;;;;;;;4.4;82.7;99460;;;;
2021/12/18 22:56:58;;;;;;;28.7;35.5;;;;;;;4.5;82.3;99430;;;;
2021/12/18 23:07:00;;;;;;;28.7;35.5;;;;;;;4.6;82.1;99410;;;;
2021/12/18 23:18:08;;;;;;;29;34.7;;;;;;;4.7;81.6;99390;;;;
2021/12/18 23:28:58;;;;;;;29;34.7;;;;;;;4.7;81.4;99360;;;;
2021/12/18 23:40:00;;;;;;;29;34.7;;;;;;;4.8;80.8;99360;;;;
2021/12/18 23:49:58;;;;;;;25.1;32.9;;;;;;;4.8;80.5;99340;;;;
